Time;durP1;ratioP1;P1;durP2;ratioP2;P2;SDS_P1;SDS_P2;PMS_P1;PMS_P2;Temp;Humidity;BMP_temperature;BMP_pressure;BME280_temperature;BME280_humidity;BME280_pressure;Samples;Min_cycle;Max_cycle;Signal;HPM_P1;HPM_P2
2022/04/04 00:01:50;;;;;;;3.38;0.52;;;;;;;0.34;54.57;101426.47;5022992;28;20037;-78
2022/04/04 00:04:16;;;;;;;1.30;0.85;;;;;;;0.09;54.45;101423.59;5022390;28;20029;-78
2022/04/04 00:06:41;;;;;;;1.45;0.75;;;;;;;-0.08;55.12;101415.69;5024786;28;20033;-79
2022/04/04 00:09:07;;;;;;;2.38;1.15;;;;;;;0.28;54.36;101412.69;5032185;28;20039;-79
2022/04/04 00:11:32;;;;;;;3.97;0.98;;;;;;;0.14;54.53;101403.09;5044043;28;20034;-79
2022/04/04 00:13:58;;;;;;;2.38;0.90;;;;;;;0.05;55.14;101398.69;5021020;28;20051;-78
2022/04/04 00:16:23;;;;;;;1.65;0.50;;;;;;;0.37;54.40;101393.09;5048037;28;20481;-78
2022/04/04 00:18:49;;;;;;;2.25;0.82;;;;;;;0.14;55.19;101390.22;5040815;28;20099;-80
2022/04/04 00:21:15;;;;;;;2.47;1.13;;;;;;;0.25;54.99;101386.94;5048012;28;20037;-81
2022/04/04 00:23:41;;;;;;;1.30;0.55;;;;;;;0.11;55.55;101385.06;5041144;28;20111;-79
2022/04/04 00:26:07;;;;;;;4.47;0.82;;;;;;;0.27;54.94;101374.97;5026265;28;20313;-82
2022/04/04 00:28:32;;;;;;;3.35;0.50;;;;;;;0.11;55.50;101373.06;5025936;28;20037;-76
2022/04/04 00:30:58;;;;;;;1.92;0.63;;;;;;;0.34;55.25;101360.47;5042318;28;20033;-82
2022/04/04 00:33:23;;;;;;;2.55;0.60;;;;;;;0.27;55.45;101364.66;5030286;28;20039;-78
2022/04/04 00:35:49;;;;;;;2.13;1.33;;;;;;;0.22;55.58;101363.78;5021233;28;20483;-80
2022/04/04 00:38:15;;;;;;;6.22;0.80;;;;;;;0.30;55.16;101352.69;5026224;28;20099;-81
2022/04/04 00:40:43;;;;;;;8.55;1.25;;;;;;;0.12;56.39;101348.22;5040797;28;20135;-81
2022/04/04 00:43:09;;;;;;;3.33;1.10;;;;;;;0.44;55.41;101340.84;5026101;28;20133;-80
2022/04/04 00:45:34;;;;;;;4.90;1.05;;;;;;;0.20;56.01;101338.91;5047378;28;20528;-80
2022/04/04 00:48:00;;;;;;;3.92;1.67;;;;;;;-0.04;56.60;101326.63;5007954;28;20037;-80
2022/04/04 00:50:26;;;;;;;4.68;1.20;;;;;;;-0.11;56.87;101320.56;5026467;28;20032;-79
2022/04/04 00:52:52;;;;;;;3.83;1.25;;;;;;;0.13;56.32;101319.97;5043743;28;20156;-77
2022/04/04 00:55:17;;;;;;;2.55;0.90;;;;;;;0.34;55.66;101313.31;5023105;28;20029;-74
2022/04/04 00:57:44;;;;;;;9.07;2.08;;;;;;;0.41;55.67;101312.53;5040389;28;20179;-80
2022/04/04 01:00:11;;;;;;;2.33;0.85;;;;;;;0.04;56.63;101299.31;5029730;28;20044;-79
2022/04/04 01:02:38;;;;;;;5.30;1.08;;;;;;;0.48;55.33;101297.16;5021972;28;20067;-77
2022/04/04 01:05:04;;;;;;;4.45;1.05;;;;;;;0.26;55.77;101284.97;5042378;28;20095;-80
2022/04/04 01:07:30;;;;;;;3.15;1.13;;;;;;;0.47;55.25;101274.00;5041998;28;20048;-80
2022/04/04 01:09:56;;;;;;;2.03;1.08;;;;;;;0.34;55.51;101278.16;5026581;28;20067;-79
2022/04/04 01:12:22;;;;;;;6.63;1.35;;;;;;;0.17;55.67;101274.59;5046847;28;20629;-81
2022/04/04 01:14:48;;;;;;;3.13;0.70;;;;;;;-0.00;56.47;101261.56;5040662;28;20073;-79
2022/04/04 01:17:15;;;;;;;3.78;1.30;;;;;;;-0.05;56.75;101265.81;5005279;28;20049;-80
2022/04/04 01:19:41;;;;;;;5.47;1.50;;;;;;;0.14;56.27;101260.00;5023073;28;20086;-78
2022/04/04 01:22:11;;;;;;;5.68;0.93;;;;;;;-0.24;57.29;101257.88;5048558;28;20025;-80
2022/04/04 01:24:39;;;;;;;3.15;1.15;;;;;;;0.18;55.99;101255.75;5030688;28;20067;-77
2022/04/04 01:27:09;;;;;;;2.20;0.90;;;;;;;-0.60;57.92;101248.06;5027902;28;20043;-80
2022/04/04 01:29:35;;;;;;;2.50;1.20;;;;;;;0.16;55.84;101242.03;5043505;28;20020;-78
2022/04/04 01:32:01;;;;;;;1.83;0.95;;;;;;;0.35;54.91;101231.06;5047430;28;20098;-78
2022/04/04 01:34:26;;;;;;;2.25;0.80;;;;;;;-0.05;56.29;101238.41;5042401;28;20116;-81
2022/04/04 01:36:52;;;;;;;3.50;0.70;;;;;;;0.04;55.61;101206.78;5008449;28;20068;-77
2022/04/04 01:39:18;;;;;;;4.00;1.30;;;;;;;-0.65;57.58;101214.63;5041390;28;20024;-80
2022/04/04 01:41:45;;;;;;;1.75;0.85;;;;;;;-0.18;56.59;101206.59;5026297;28;20310;-83
2022/04/04 01:44:11;;;;;;;3.75;1.40;;;;;;;0.06;55.45;101198.25;5029700;28;20525;-81
2022/04/04 01:46:37;;;;;;;2.35;0.85;;;;;;;0.11;55.33;101200.84;5024412;28;20033;-80
2022/04/04 01:49:05;;;;;;;2.15;0.93;;;;;;;-0.15;55.89;101191.22;5026206;28;20506;-80
2022/04/04 01:51:32;;;;;;;2.47;1.70;;;;;;;0.75;53.59;101182.47;5043827;28;20044;-75
2022/04/04 01:53:58;;;;;;;7.43;1.20;;;;;;;0.34;54.38;101185.59;5039841;28;20072;-77
2022/04/04 01:56:27;;;;;;;4.25;1.20;;;;;;;0.80;53.24;101164.47;5026031;28;20032;-79
2022/04/04 01:58:53;;;;;;;4.38;1.35;;;;;;;0.46;54.28;101154.00;5023862;28;20080;-79
2022/04/04 02:01:24;;;;;;;7.28;1.60;;;;;;;0.37;54.45;101148.78;5027954;28;20041;-79
2022/04/04 02:03:52;;;;;;;4.43;1.20;;;;;;;0.35;54.83;101142.78;5020814;28;20029;-79
2022/04/04 02:06:20;;;;;;;4.93;1.00;;;;;;;0.08;55.51;101139.16;5041041;28;20471;-79
2022/04/04 02:08:47;;;;;;;3.47;1.00;;;;;;;0.26;54.66;101129.00;4996365;28;20032;-79
2022/04/04 02:11:14;;;;;;;3.95;2.03;;;;;;;0.64;53.77;101122.38;5042686;28;20036;-78
2022/04/04 02:13:41;;;;;;;4.57;1.33;;;;;;;0.66;53.43;101116.38;5008600;28;20044;-79
2022/04/04 02:16:07;;;;;;;7.78;1.67;;;;;;;0.28;54.59;101111.03;5008756;28;20067;-81
2022/04/04 02:18:36;;;;;;;3.13;1.48;;;;;;;0.26;54.83;101105.00;5045231;28;20453;-81
2022/04/04 02:21:03;;;;;;;7.40;1.98;;;;;;;0.40;54.47;101102.50;5028047;28;20074;-78
2022/04/04 02:23:29;;;;;;;3.30;1.23;;;;;;;0.82;53.51;101086.44;4999645;28;20049;-83
2022/04/04 02:25:56;;;;;;;4.13;1.67;;;;;;;0.15;55.07;101071.50;5045279;28;20041;-81
2022/04/04 02:28:23;;;;;;;3.08;1.73;;;;;;;0.58;54.10;101082.03;5028499;28;20040;-81
2022/04/04 02:30:51;;;;;;;6.75;2.33;;;;;;;0.84;53.47;101071.00;5030130;28;20049;-80
2022/04/04 02:33:19;;;;;;;7.57;2.38;;;;;;;0.55;54.15;101068.31;5043944;28;20037;-79
2022/04/04 02:35:46;;;;;;;4.97;2.55;;;;;;;0.56;54.28;101057.16;5042506;28;20120;-80
2022/04/04 02:38:13;;;;;;;6.63;3.10;;;;;;;0.52;54.33;101050.28;5026641;28;20132;-78
2022/04/04 02:40:40;;;;;;;7.38;2.85;;;;;;;0.11;54.93;101020.94;5042927;28;20024;-81
2022/04/04 02:43:08;;;;;;;7.65;3.35;;;;;;;0.12;55.37;101035.50;5011212;28;20039;-81
2022/04/04 02:45:34;;;;;;;6.95;3.58;;;;;;;0.21;55.50;101034.69;5031713;28;20029;-80
2022/04/04 02:48:00;;;;;;;6.22;3.47;;;;;;;0.48;54.12;101018.56;5020890;28;20106;-81
2022/04/04 02:50:26;;;;;;;5.78;2.88;;;;;;;0.47;54.63;101030.53;5022367;28;20037;-80
2022/04/04 02:52:52;;;;;;;9.18;3.88;;;;;;;0.10;54.84;101005.50;5040514;28;20033;-79
2022/04/04 02:58:03;;;;;;;10.52;2.72;;;;;;;0.45;54.47;100985.09;5029577;28;20712;-79
2022/04/04 03:00:29;;;;;;;7.68;4.00;;;;;;;1.05;52.84;100985.25;5029170;28;20079;-80
2022/04/04 03:02:56;;;;;;;9.52;4.03;;;;;;;0.62;54.14;100975.72;4998378;28;20434;-79
2022/04/04 03:05:22;;;;;;;8.65;3.75;;;;;;;-0.19;55.45;100978.78;5044225;28;20032;-79
2022/04/04 03:07:48;;;;;;;7.32;4.60;;;;;;;0.72;53.95;100968.03;5045117;28;20087;-77
2022/04/04 03:10:15;;;;;;;7.95;4.25;;;;;;;0.12;54.88;100968.66;5020826;28;20072;-77
2022/04/04 03:12:49;;;;;;;11.77;5.20;;;;;;;0.71;54.08;100961.19;5041549;28;20094;-81
2022/04/04 03:15:21;;;;;;;8.85;4.70;;;;;;;0.72;53.81;100944.88;5023091;28;20055;-79
2022/04/04 03:17:49;;;;;;;14.32;5.15;;;;;;;0.80;53.47;100946.59;5007878;28;20048;-79
2022/04/04 03:20:17;;;;;;;14.38;4.65;;;;;;;0.73;53.64;100928.59;5028010;28;20598;-78
2022/04/04 03:22:44;;;;;;;8.52;4.28;;;;;;;0.68;54.03;100928.59;5042490;28;20033;-78
2022/04/04 03:25:11;;;;;;;11.98;4.93;;;;;;;0.16;55.39;100939.56;5031010;28;20041;-81
2022/04/04 03:27:39;;;;;;;8.40;4.53;;;;;;;0.48;54.57;100910.53;5040968;28;20090;-81
2022/04/04 03:30:10;;;;;;;9.95;4.95;;;;;;;0.85;53.73;100915.72;5047517;28;20149;-78
2022/04/04 03:32:36;;;;;;;14.90;5.55;;;;;;;0.42;55.03;100910.53;5027768;28;20398;-79
2022/04/04 03:35:03;;;;;;;7.72;4.63;;;;;;;0.49;54.86;100905.38;5041586;28;20043;-80
2022/04/04 03:37:29;;;;;;;12.00;6.20;;;;;;;0.86;53.92;100899.47;5022147;28;20087;-81
2022/04/04 03:39:54;;;;;;;12.07;5.30;;;;;;;0.95;53.93;100896.00;5024316;28;20036;-81
2022/04/04 03:42:20;;;;;;;10.35;5.93;;;;;;;0.42;55.00;100880.50;5040594;28;20115;-80
2022/04/04 03:44:46;;;;;;;9.65;4.22;;;;;;;1.16;52.93;100879.72;5040106;28;20040;-77
2022/04/04 03:47:12;;;;;;;11.05;6.25;;;;;;;1.24;53.03;100873.69;5021493;28;20129;-79
2022/04/04 03:49:38;;;;;;;10.57;6.03;;;;;;;0.65;54.66;100877.13;5006631;28;20554;-79
2022/04/04 03:52:06;;;;;;;14.93;7.32;;;;;;;0.80;54.08;100860.84;4999992;28;20145;-79
2022/04/04 03:54:32;;;;;;;10.13;5.40;;;;;;;1.08;53.38;100860.00;5040398;28;20556;-79
2022/04/04 03:56:58;;;;;;;18.30;6.47;;;;;;;0.85;54.87;100848.84;5040264;28;20037;-80
2022/04/04 03:59:24;;;;;;;17.58;7.30;;;;;;;0.89;54.75;100840.25;5043714;28;20064;-77
2022/04/04 04:01:49;;;;;;;13.52;6.88;;;;;;;1.18;54.25;100844.53;5020860;28;20116;-81
2022/04/04 04:04:15;;;;;;;12.00;6.78;;;;;;;1.17;54.44;100829.91;5019639;28;20036;-81
2022/04/04 04:06:40;;;;;;;12.60;6.10;;;;;;;0.71;55.43;100824.81;5026841;28;20032;-79
2022/04/04 04:09:06;;;;;;;12.95;6.47;;;;;;;0.59;56.73;100794.78;5024320;28;20470;-80
2022/04/04 04:11:31;;;;;;;9.20;6.53;;;;;;;0.41;57.05;100811.06;5041301;28;20845;-79
2022/04/04 04:13:57;;;;;;;13.30;6.53;;;;;;;0.62;57.17;100799.97;5023545;28;20045;-79
2022/04/04 04:16:23;;;;;;;12.13;7.00;;;;;;;0.01;59.22;100790.44;5046978;28;20039;-82
2022/04/04 04:18:49;;;;;;;10.68;6.68;;;;;;;0.24;58.90;100782.78;5039173;28;20029;-81
2022/04/04 04:21:14;;;;;;;26.15;8.23;;;;;;;0.25;58.55;100774.19;5009927;28;20116;-80
2022/04/04 04:23:41;;;;;;;13.90;8.07;;;;;;;0.03;60.15;100768.16;5047032;28;21051;-80
2022/04/04 04:26:08;;;;;;;15.55;7.75;;;;;;;0.53;58.23;100766.53;5023193;28;20029;-82
2022/04/04 04:28:35;;;;;;;16.10;8.20;;;;;;;0.62;58.22;100764.81;5021966;28;20041;-80
2022/04/04 04:31:01;;;;;;;15.00;7.38;;;;;;;0.04;60.20;100739.06;5041793;28;20437;-82
2022/04/04 04:33:27;;;;;;;15.88;8.05;;;;;;;-0.01;60.44;100740.78;5023120;28;20094;-81
2022/04/04 04:35:53;;;;;;;14.18;8.18;;;;;;;0.39;59.60;100730.50;5004688;28;20036;-78
2022/04/04 04:38:19;;;;;;;15.88;9.02;;;;;;;0.44;59.79;100721.94;5023862;28;20124;-79
2022/04/04 04:40:45;;;;;;;19.00;9.02;;;;;;;0.78;58.92;100724.47;5025187;28;20128;-81
2022/04/04 04:43:11;;;;;;;15.30;8.88;;;;;;;0.45;59.58;100699.66;5020145;28;20068;-82
2022/04/04 04:45:37;;;;;;;16.73;8.70;;;;;;;0.57;59.59;100694.50;5023330;28;20103;-82
2022/04/04 04:48:02;;;;;;;17.45;8.57;;;;;;;0.77;59.23;100683.31;5021411;28;20043;-81
2022/04/04 04:50:28;;;;;;;17.95;7.80;;;;;;;0.41;59.90;100677.38;5025572;28;20040;-81
2022/04/04 04:52:55;;;;;;;16.33;8.10;;;;;;;0.69;59.73;100679.03;5039359;28;20119;-79
2022/04/04 04:55:23;;;;;;;19.17;8.40;;;;;;;0.50;60.29;100667.06;5042146;28;20029;-80
2022/04/04 04:57:49;;;;;;;21.35;9.77;;;;;;;0.46;60.53;100662.81;5039506;28;20149;-79
2022/04/04 05:00:19;;;;;;;24.05;8.88;;;;;;;0.08;61.48;100643.13;5025156;28;20040;-81
2022/04/04 05:02:44;;;;;;;19.83;8.68;;;;;;;0.58;59.84;100639.63;5035613;28;20072;-82
2022/04/04 05:05:10;;;;;;;18.17;10.13;;;;;;;0.61;60.13;100634.50;5042138;28;20617;-80
2022/04/04 05:07:36;;;;;;;15.00;8.77;;;;;;;0.51;60.64;100611.38;5025211;28;20029;-78
2022/04/04 05:10:02;;;;;;;15.38;8.73;;;;;;;0.62;60.24;100617.34;5042122;28;20083;-79
2022/04/04 05:12:28;;;;;;;17.15;10.00;;;;;;;0.58;60.47;100603.63;5002961;28;20076;-80
2022/04/04 05:14:53;;;;;;;18.52;8.70;;;;;;;0.51;61.16;100601.06;5041422;28;20044;-80
2022/04/04 05:17:19;;;;;;;18.48;10.27;;;;;;;0.22;61.65;100602.84;5019321;28;20112;-81
2022/04/04 05:19:44;;;;;;;20.20;10.30;;;;;;;0.78;60.42;100590.69;5023397;28;20052;-79
2022/04/04 05:22:10;;;;;;;21.10;9.30;;;;;;;0.27;61.48;100587.41;5038303;28;20041;-79
2022/04/04 05:24:36;;;;;;;21.50;10.77;;;;;;;0.71;60.90;100583.00;5040003;28;20434;-79
2022/04/04 05:27:01;;;;;;;23.80;10.77;;;;;;;-0.14;63.32;100576.31;5021584;28;20136;-81
2022/04/04 05:29:27;;;;;;;18.05;9.27;;;;;;;0.27;61.96;100580.53;5018172;28;20036;-81
2022/04/04 05:31:54;;;;;;;25.90;11.48;;;;;;;0.56;61.51;100561.59;5037693;28;20130;-78
2022/04/04 05:34:20;;;;;;;17.02;10.27;;;;;;;0.19;62.18;100569.44;5024271;28;20048;-83
2022/04/04 05:36:47;;;;;;;28.05;10.82;;;;;;;0.25;62.31;100548.00;5040654;28;20037;-81
2022/04/04 05:39:13;;;;;;;15.27;9.50;;;;;;;0.61;62.05;100547.03;5042632;28;20166;-82
2022/04/04 05:41:38;;;;;;;17.92;11.07;;;;;;;0.15;62.63;100546.31;5021986;28;20037;-82
2022/04/04 05:44:06;;;;;;;23.80;11.57;;;;;;;0.52;61.76;100534.19;5024305;28;20550;-81
2022/04/04 05:46:32;;;;;;;25.10;9.75;;;;;;;0.45;62.37;100550.50;5039547;28;20155;-81
2022/04/04 05:48:58;;;;;;;23.20;11.45;;;;;;;0.81;61.40;100528.06;5008329;28;20041;-81
2022/04/04 05:51:24;;;;;;;24.23;12.02;;;;;;;0.57;61.91;100523.88;5050659;28;20032;-81
2022/04/04 05:53:49;;;;;;;22.08;10.40;;;;;;;0.79;61.59;100509.22;5046512;28;20029;-79
2022/04/04 05:56:15;;;;;;;17.70;10.20;;;;;;;0.88;60.93;100509.16;5029730;28;20503;-81
2022/04/04 05:58:41;;;;;;;20.30;10.18;;;;;;;0.62;62.04;100505.00;5049199;28;20967;-78
2022/04/04 06:01:08;;;;;;;18.70;11.30;;;;;;;0.47;62.32;100503.34;5024176;28;20122;-81
2022/04/04 06:03:34;;;;;;;26.73;11.95;;;;;;;0.36;62.81;100506.84;5029009;28;20076;-81
2022/04/04 06:06:01;;;;;;;19.10;10.95;;;;;;;0.58;62.16;100500.75;5031413;28;20029;-81
2022/04/04 06:08:26;;;;;;;19.20;10.52;;;;;;;0.54;62.18;100511.91;5046012;28;20044;-81
2022/04/04 06:10:53;;;;;;;16.98;9.45;;;;;;;0.71;61.93;100498.13;5044204;28;20402;-79
2022/04/04 06:13:19;;;;;;;23.00;11.18;;;;;;;0.64;61.78;100485.28;5051459;28;20059;-81
2022/04/04 06:15:46;;;;;;;18.50;10.55;;;;;;;0.64;62.25;100484.44;5048694;28;20036;-80
2022/04/04 06:18:15;;;;;;;17.00;10.27;;;;;;;0.19;63.28;100484.63;5032446;28;20410;-82
2022/04/04 06:20:41;;;;;;;22.05;10.10;;;;;;;0.20;62.92;100450.34;5028458;28;20032;-75
2022/04/04 06:23:07;;;;;;;17.20;9.45;;;;;;;1.06;60.57;100482.44;5045755;28;20042;-83
2022/04/04 06:25:33;;;;;;;21.13;11.52;;;;;;;0.50;62.13;100466.47;5047235;28;20037;-82
2022/04/04 06:27:58;;;;;;;22.02;10.07;;;;;;;0.36;62.93;100468.28;5028705;28;20045;-80
2022/04/04 06:30:25;;;;;;;19.85;10.98;;;;;;;0.40;62.06;100451.97;5050089;28;20076;-80
2022/04/04 06:32:51;;;;;;;19.52;10.73;;;;;;;-0.38;64.68;100455.63;5047032;28;21749;-80
2022/04/04 06:35:16;;;;;;;20.65;10.27;;;;;;;0.19;63.19;100452.91;5030521;28;20038;-77
2022/04/04 06:37:44;;;;;;;18.35;9.32;;;;;;;0.31;63.13;100455.44;5043291;28;20494;-81
2022/04/04 06:40:11;;;;;;;15.23;9.35;;;;;;;0.03;63.38;100431.53;5013000;28;20039;-81
2022/04/04 06:42:42;;;;;;;16.63;10.60;;;;;;;0.59;61.65;100430.44;5025357;28;20045;-77
2022/04/04 06:45:09;;;;;;;21.33;9.80;;;;;;;0.19;63.02;100425.50;5048393;28;20060;-79
2022/04/04 06:47:36;;;;;;;17.85;9.15;;;;;;;0.17;63.05;100419.50;5045868;28;20040;-81
2022/04/04 06:50:02;;;;;;;16.80;9.27;;;;;;;0.61;61.79;100404.69;5044294;28;20037;-79
2022/04/04 06:52:27;;;;;;;14.25;8.63;;;;;;;0.19;62.74;100409.22;5023972;28;20187;-82
2022/04/04 06:54:54;;;;;;;15.85;9.57;;;;;;;-0.02;63.69;100394.75;5027764;28;20127;-82
2022/04/04 06:57:20;;;;;;;16.90;9.15;;;;;;;0.09;63.63;100398.13;5048614;28;20040;-81
2022/04/04 06:59:46;;;;;;;13.05;8.93;;;;;;;0.05;62.85;100384.44;5041179;28;20558;-79
2022/04/04 07:02:12;;;;;;;14.23;7.20;;;;;;;-0.09;63.70;100388.78;5031569;28;20128;-77
2022/04/04 07:04:37;;;;;;;13.75;8.25;;;;;;;-0.00;63.86;100387.88;5040449;28;20041;-76
2022/04/04 07:07:06;;;;;;;16.75;8.13;;;;;;;-0.03;64.04;100375.06;5010659;28;20043;-81
2022/04/04 07:09:31;;;;;;;20.52;9.57;;;;;;;-0.19;64.72;100369.97;5025904;28;20124;-80
2022/04/04 07:11:57;;;;;;;12.70;9.25;;;;;;;-0.20;64.33;100364.84;5004106;28;20112;-81
2022/04/04 07:14:24;;;;;;;17.58;10.07;;;;;;;-0.03;64.04;100369.94;5026820;28;20043;-81
2022/04/04 07:16:52;;;;;;;20.63;9.23;;;;;;;-0.24;64.72;100363.97;5024387;28;20056;-81
2022/04/04 07:19:22;;;;;;;16.40;8.75;;;;;;;0.24;63.19;100350.94;5022594;28;20043;-80
2022/04/04 07:21:50;;;;;;;16.02;10.32;;;;;;;0.27;63.04;100341.47;5042432;28;20128;-79
2022/04/04 07:24:16;;;;;;;17.55;9.85;;;;;;;0.05;63.77;100332.19;5044310;28;20025;-78
2022/04/04 07:26:42;;;;;;;13.88;8.95;;;;;;;0.53;63.19;100332.75;5039544;28;20157;-78
2022/04/04 07:29:07;;;;;;;16.98;8.88;;;;;;;0.59;62.27;100327.56;5030109;28;20451;-83
2022/04/04 07:31:32;;;;;;;17.17;9.95;;;;;;;0.58;62.40;100320.72;5032343;28;20033;-79
2022/04/04 07:33:58;;;;;;;17.33;10.23;;;;;;;0.48;62.99;100312.22;5006652;28;20587;-84
2022/04/04 07:36:24;;;;;;;16.63;8.40;;;;;;;0.68;62.09;100318.94;5011183;28;20033;-81
2022/04/04 07:38:50;;;;;;;15.18;9.68;;;;;;;0.25;63.70;100302.06;5026246;28;20149;-84
2022/04/04 07:41:18;;;;;;;14.02;9.00;;;;;;;0.25;63.57;100298.66;5024745;28;20085;-81
2022/04/04 07:43:47;;;;;;;15.65;9.52;;;;;;;0.16;63.85;100291.84;5029537;28;20078;-84
2022/04/04 07:46:12;;;;;;;12.05;8.25;;;;;;;-0.38;64.83;100288.72;5045378;28;20115;-85
2022/04/04 07:48:40;;;;;;;17.60;10.52;;;;;;;0.03;64.28;100264.53;5023026;28;20042;-82
2022/04/04 07:51:06;;;;;;;21.33;9.40;;;;;;;0.22;63.64;100270.41;5029275;28;20039;-83
2022/04/04 07:53:32;;;;;;;18.00;9.10;;;;;;;-0.19;65.37;100256.09;5044275;28;20029;-83
2022/04/04 07:56:01;;;;;;;14.65;9.43;;;;;;;0.17;64.13;100252.47;5027205;28;20878;-80
2022/04/04 07:58:26;;;;;;;14.95;9.88;;;;;;;-0.01;64.71;100252.59;5026198;28;20041;-81
2022/04/04 08:00:52;;;;;;;17.05;9.85;;;;;;;0.22;63.90;100227.56;5025907;28;20036;-80
2022/04/04 08:03:19;;;;;;;14.90;9.75;;;;;;;0.21;63.53;100238.72;5026741;28;20048;-79
2022/04/04 08:05:45;;;;;;;14.55;9.38;;;;;;;-0.18;65.40;100230.41;5022457;28;20064;-83
2022/04/04 08:08:10;;;;;;;14.73;8.30;;;;;;;-0.37;65.25;100205.69;5039369;28;20387;-81
2022/04/04 08:10:36;;;;;;;12.57;9.05;;;;;;;-0.08;65.41;100209.78;5019221;28;20039;-82
2022/04/04 08:13:02;;;;;;;12.93;8.48;;;;;;;-0.04;65.41;100216.63;5024023;28;20115;-76
2022/04/04 08:15:28;;;;;;;12.93;7.85;;;;;;;0.01;64.49;100213.16;5025377;28;20024;-80
2022/04/04 08:17:54;;;;;;;11.93;7.72;;;;;;;0.25;64.57;100193.28;5023873;28;20029;-79
2022/04/04 08:20:21;;;;;;;12.13;8.65;;;;;;;0.64;63.15;100192.06;5030080;28;20096;-82
2022/04/04 08:22:47;;;;;;;10.00;7.07;;;;;;;0.34;64.11;100182.06;5023003;28;20411;-83
2022/04/04 08:25:14;;;;;;;14.80;8.52;;;;;;;-0.48;66.55;100185.22;5040846;28;20024;-80
2022/04/04 08:27:43;;;;;;;11.77;7.05;;;;;;;-0.02;65.56;100179.78;5021818;28;20048;-79
2022/04/04 08:30:10;;;;;;;9.55;6.57;;;;;;;0.20;65.04;100179.63;5021041;28;20024;-81
2022/04/04 08:32:37;;;;;;;11.32;6.68;;;;;;;0.30;64.55;100175.25;5018442;28;20204;-77
2022/04/04 08:35:06;;;;;;;9.65;6.47;;;;;;;0.57;63.76;100164.72;5044002;28;20024;-79
2022/04/04 08:37:36;;;;;;;8.75;6.70;;;;;;;0.73;63.49;100159.41;5023280;28;20044;-77
2022/04/04 08:40:04;;;;;;;11.23;6.65;;;;;;;0.76;62.99;100149.09;5048448;28;20028;-84
2022/04/04 08:42:29;;;;;;;12.38;7.00;;;;;;;0.62;63.29;100142.38;5025155;28;20048;-80
2022/04/04 08:44:56;;;;;;;11.73;6.57;;;;;;;0.67;63.81;100156.03;5045372;28;20064;-79
2022/04/04 08:47:23;;;;;;;9.90;6.30;;;;;;;0.46;64.16;100140.81;5044832;28;20048;-81
2022/04/04 08:49:53;;;;;;;8.18;5.68;;;;;;;0.29;64.86;100138.41;5041286;28;20056;-82
2022/04/04 08:52:19;;;;;;;8.30;6.18;;;;;;;1.24;62.25;100127.06;5042500;28;20076;-82
2022/04/04 08:54:45;;;;;;;8.27;5.90;;;;;;;0.42;63.69;100124.56;5042717;28;20021;-80
2022/04/04 08:57:11;;;;;;;11.05;6.95;;;;;;;0.20;65.03;100108.50;5024919;28;20051;-79
2022/04/04 08:59:38;;;;;;;7.78;5.53;;;;;;;0.38;64.74;100132.34;5041294;28;20036;-79
2022/04/04 09:02:04;;;;;;;10.35;5.70;;;;;;;0.73;63.67;100123.41;5019255;28;20047;-81
2022/04/04 09:04:32;;;;;;;9.57;6.38;;;;;;;0.51;64.93;100133.91;5025683;28;20037;-80
2022/04/04 09:06:58;;;;;;;7.55;5.32;;;;;;;0.69;64.31;100112.28;5022550;28;20037;-80
2022/04/04 09:09:36;;;;;;;10.25;5.43;;;;;;;0.56;64.04;100090.16;5024579;28;20059;-80
2022/04/04 09:12:06;;;;;;;7.13;5.60;;;;;;;0.38;65.26;100088.63;5037297;28;20189;-80
2022/04/04 09:14:37;;;;;;;9.30;5.65;;;;;;;0.37;65.12;100079.22;5025205;28;20028;-80
2022/04/04 09:17:06;;;;;;;8.82;4.90;;;;;;;0.48;64.99;100078.22;5039470;28;20552;-81
2022/04/04 09:19:32;;;;;;;7.22;4.22;;;;;;;0.97;64.53;100071.66;5003372;28;20111;-80
2022/04/04 09:22:03;;;;;;;9.07;4.28;;;;;;;0.20;66.31;100085.38;5000800;28;20045;-80
2022/04/04 09:24:46;;;;;;;8.60;5.90;;;;;;;1.04;64.53;100069.84;5018403;28;20033;-80
2022/04/04 09:27:22;;;;;;;8.40;5.15;;;;;;;1.46;63.25;100047.81;5045968;28;20040;-81
2022/04/04 09:29:51;;;;;;;6.03;3.75;;;;;;;1.03;64.96;100053.53;5016427;28;20062;-81
2022/04/04 09:32:16;;;;;;;6.63;2.53;;;;;;;0.75;65.98;100054.75;5033328;28;20059;-81
2022/04/04 09:34:54;;;;;;;6.57;3.50;;;;;;;1.02;64.63;100031.25;5019808;28;20041;-80
2022/04/04 09:37:21;;;;;;;7.25;2.65;;;;;;;1.18;65.00;100031.03;5035640;28;20045;-82
2022/04/04 09:39:50;;;;;;;4.03;3.08;;;;;;;1.30;64.16;100008.56;5021719;28;20033;-78
2022/04/04 09:42:17;;;;;;;4.30;3.05;;;;;;;1.70;63.54;100017.38;5022234;28;20045;-82
2022/04/04 09:44:57;;;;;;;4.72;2.50;;;;;;;1.65;63.54;100004.56;5037756;28;20395;-77
2022/04/04 09:47:23;;;;;;;5.70;3.22;;;;;;;1.86;63.62;99992.19;4973497;28;20068;-77
2022/04/04 09:49:49;;;;;;;6.13;2.40;;;;;;;1.87;63.60;99988.75;5022755;28;20466;-81
2022/04/04 09:52:15;;;;;;;4.22;2.22;;;;;;;1.72;64.08;99953.78;5038413;28;20518;-81
2022/04/04 09:54:46;;;;;;;3.33;2.03;;;;;;;1.83;63.57;99985.34;5019157;28;20029;-77
2022/04/04 09:57:13;;;;;;;5.38;1.80;;;;;;;1.82;63.61;99985.38;5017057;28;20780;-81
2022/04/04 09:59:43;;;;;;;3.45;2.65;;;;;;;1.92;63.30;99977.47;5021509;28;20025;-82
2022/04/04 10:02:11;;;;;;;6.60;1.92;;;;;;;1.60;64.61;99949.72;5039285;28;20043;-78
2022/04/04 10:04:38;;;;;;;3.53;1.77;;;;;;;1.45;65.06;99965.44;5021733;28;20588;-79
2022/04/04 10:07:09;;;;;;;3.03;1.55;;;;;;;1.51;65.30;99968.75;5023302;28;20053;-81
2022/04/04 10:09:35;;;;;;;4.82;1.45;;;;;;;2.00;63.72;99955.84;5005315;28;20029;-81
2022/04/04 10:12:02;;;;;;;2.35;1.08;;;;;;;2.46;62.39;99958.34;5039292;28;20060;-80
2022/04/04 10:14:30;;;;;;;2.30;1.88;;;;;;;2.37;62.60;99942.22;5030038;28;20082;-79
2022/04/04 10:16:57;;;;;;;6.22;2.50;;;;;;;2.50;62.84;99948.81;5040084;28;20091;-77
2022/04/04 10:19:25;;;;;;;5.95;1.75;;;;;;;2.48;61.76;99945.44;5042482;28;20036;-81
2022/04/04 10:21:51;;;;;;;3.10;1.50;;;;;;;2.11;63.97;99961.66;5018837;28;20291;-80
2022/04/04 10:24:18;;;;;;;4.13;1.40;;;;;;;1.87;64.89;99932.06;5028494;28;20151;-81
2022/04/04 10:26:48;;;;;;;2.03;0.90;;;;;;;2.25;64.07;99949.34;5045616;28;20056;-77
2022/04/04 10:29:17;;;;;;;1.60;1.23;;;;;;;2.40;63.94;99943.03;5027007;28;20040;-77
2022/04/04 10:31:45;;;;;;;1.98;0.80;;;;;;;2.51;63.08;99919.56;5038243;28;20035;-76
2022/04/04 10:34:19;;;;;;;2.03;1.10;;;;;;;2.48;63.75;99919.63;5042543;28;20127;-79
2022/04/04 10:36:53;;;;;;;3.75;1.67;;;;;;;2.53;63.70;99922.97;5039820;28;20060;-78
2022/04/04 10:39:39;;;;;;;1.73;0.90;;;;;;;2.50;64.06;99925.63;5049705;28;20123;-83
2022/04/04 10:42:24;;;;;;;3.25;1.10;;;;;;;1.66;65.96;99910.09;5044271;28;20037;-80
2022/04/04 10:44:56;;;;;;;1.83;1.17;;;;;;;2.82;63.35;99918.88;5026085;28;20032;-81
2022/04/04 10:47:24;;;;;;;4.75;1.35;;;;;;;2.63;63.76;99914.16;5043279;28;20036;-82
2022/04/04 10:49:50;;;;;;;2.67;0.85;;;;;;;2.97;63.64;99910.78;5019578;28;20036;-80
2022/04/04 10:52:19;;;;;;;1.92;1.20;;;;;;;2.47;64.25;99925.69;5038386;28;20116;-81
2022/04/04 10:54:46;;;;;;;1.65;0.85;;;;;;;2.66;64.47;99914.06;5042423;28;20123;-80
2022/04/04 10:57:16;;;;;;;3.30;1.10;;;;;;;2.72;63.93;99913.94;5044782;28;20116;-76
2022/04/04 10:59:46;;;;;;;4.30;0.80;;;;;;;2.45;65.25;99909.41;5024440;28;20122;-78
2022/04/04 11:02:14;;;;;;;1.70;0.73;;;;;;;1.82;66.88;99906.38;5041105;28;20045;-78
2022/04/04 11:07:38;;;;;;;2.75;0.80;;;;;;;2.61;64.86;99895.28;5021501;28;20577;-79
2022/04/04 11:07:39;;;;;;;1.70;0.65;;;;;;;2.73;64.91;99905.31;4998934;28;20111;-79
2022/04/04 11:10:06;;;;;;;2.15;1.00;;;;;;;2.81;64.61;99886.22;5034104;28;20486;-80
2022/04/04 11:13:00;;;;;;;1.48;0.85;;;;;;;2.21;65.57;99885.81;5040617;28;20037;-81
2022/04/04 11:15:53;;;;;;;2.38;0.73;;;;;;;2.63;65.59;99893.50;5045044;28;20068;-78
2022/04/04 11:18:19;;;;;;;2.70;0.70;;;;;;;3.23;63.89;99879.16;5042116;28;20075;-78
2022/04/04 11:20:59;;;;;;;1.75;0.80;;;;;;;2.51;65.76;99871.41;5041413;28;20033;-81
2022/04/04 11:23:34;;;;;;;2.50;0.82;;;;;;;3.12;64.21;99871.69;5025542;28;20107;-80
2022/04/04 11:26:01;;;;;;;1.00;0.45;;;;;;;2.04;66.55;99878.47;5021053;28;20032;-79
2022/04/04 11:28:31;;;;;;;2.30;0.60;;;;;;;2.68;65.46;99862.44;5019478;28;20060;-80
2022/04/04 11:31:23;;;;;;;2.05;0.63;;;;;;;2.59;66.32;99871.22;5010097;28;20119;-80
2022/04/04 11:33:54;;;;;;;0.80;0.38;;;;;;;2.57;65.89;99875.56;5022346;28;20079;-78